Aviation Digital Data Service (ADDS)

Output produced by METARs form (1200 UTC 22 March 2019)
found at http://www.aviationweather.gov/metar/data/
 
Forecast for: BGMQ (MANIITSOQ , GL)
Text: TAF BGMQ 220922Z 2209/2218 34008KT 9999 SCT018 BKN040
Forecast period: 0900 to 1800 UTC 22 March 2019
Forecast type: FROM: standard forecast or significant change
Winds: from the NNW (340 degrees) at 9 MPH (8 knots; 4.1 m/s)
Visibility: 6 or more miles 10+ km)
Ceiling: 4000 feet AGL
Clouds: scattered clouds at 1800 feet AGL
broken clouds at 4000 feet AGL
Weather: no significant weather forecast for this period
Text: TEMPO 2209/2212 2500 -SHSN BKN008
Forecast period: 0900 to 1200 UTC 22 March 2019
Forecast type: TEMPORARY: The following changes expected for less than half the time period
Visibility: 1.55 miles (2.49 km)
Ceiling: 800 feet AGL
Clouds: broken clouds at 800 feet AGL
Weather: -SHSN  (light snow showers)
Text: TEMPO 2212/2218 SCT040
Forecast period: 1200 to 1800 UTC 22 March 2019
Forecast type: TEMPORARY: The following changes expected for less than half the time period
Visibility: missing
Ceiling: at least 12,000 feet AGL
Clouds: scattered clouds at 4000 feet AGL
Weather: no significant weather forecast for this period